createdAt,value
2019-02-05T00:00:46.006Z,4.38
2019-02-05T00:01:45.998Z,4.46
2019-02-05T00:02:45.979Z,4.39
2019-02-05T00:03:45.987Z,4.34
2019-02-05T00:04:45.966Z,4.43
2019-02-05T00:05:45.955Z,4.43
2019-02-05T00:06:45.965Z,4.36
2019-02-05T00:07:45.936Z,4.29
2019-02-05T00:08:45.937Z,4.29
2019-02-05T00:09:45.908Z,4.29
2019-02-05T00:10:45.907Z,4.36
2019-02-05T00:11:45.909Z,4.29
2019-02-05T00:12:45.875Z,4.26
2019-02-05T00:13:45.861Z,4.28
2019-02-05T00:14:45.861Z,4.29
2019-02-05T00:15:45.851Z,4.29
2019-02-05T00:16:45.859Z,4.26
2019-02-05T00:17:45.830Z,4.28
2019-02-05T00:18:45.817Z,4.42
2019-02-05T00:19:45.800Z,4.38
2019-02-05T00:20:45.799Z,4.46
2019-02-05T00:21:45.800Z,4.34
2019-02-05T00:22:45.782Z,4.36
2019-02-05T00:23:45.765Z,4.25
2019-02-05T00:24:45.761Z,4.35
2019-02-05T00:25:45.744Z,4.31
2019-02-05T00:26:45.754Z,4.29
2019-02-05T00:27:45.926Z,4.26
2019-02-05T00:28:45.705Z,4.26
2019-02-05T00:29:45.690Z,4.29
2019-02-05T00:30:45.685Z,4.25
2019-02-05T00:31:45.691Z,4.32
2019-02-05T00:32:45.661Z,4.28
2019-02-05T00:33:45.649Z,4.26
2019-02-05T00:34:45.640Z,4.28
2019-02-05T00:35:45.617Z,4.31
2019-02-05T00:36:45.631Z,4.29
2019-02-05T00:37:45.613Z,4.31
2019-02-05T00:38:45.603Z,4.17
2019-02-05T00:39:45.582Z,4.08
2019-02-05T00:40:45.565Z,4.06
2019-02-05T00:41:45.581Z,3.96
2019-02-05T00:42:45.559Z,4.04
2019-02-05T00:43:45.543Z,3.99
2019-02-05T00:44:45.537Z,3.99
2019-02-05T00:45:45.566Z,3.90
2019-02-05T00:46:45.526Z,3.96
2019-02-05T00:47:45.519Z,3.90
2019-02-05T00:48:45.489Z,3.98
2019-02-05T00:49:45.478Z,4.02
2019-02-05T00:50:45.474Z,3.98
2019-02-05T00:51:45.473Z,4.04
2019-02-05T00:52:45.447Z,3.90
2019-02-05T00:53:45.430Z,3.88
2019-02-05T00:54:45.425Z,3.88
2019-02-05T00:55:45.411Z,3.71
2019-02-05T00:56:45.419Z,3.81
2019-02-05T00:57:45.402Z,3.80
2019-02-05T00:58:45.370Z,3.74
2019-02-05T00:59:45.367Z,3.71
2019-02-05T01:00:45.347Z,3.74
2019-02-05T01:01:45.370Z,3.59
2019-02-05T01:02:45.341Z,3.62
2019-02-05T01:03:45.319Z,3.63
2019-02-05T01:04:45.313Z,3.56
2019-02-05T01:05:45.315Z,3.63
2019-02-05T01:06:45.311Z,3.57
2019-02-05T01:07:45.286Z,3.45
2019-02-05T01:08:45.264Z,3.52
2019-02-05T01:09:45.260Z,3.49
2019-02-05T01:10:45.238Z,3.52
2019-02-05T01:11:45.262Z,3.52
2019-02-05T01:12:45.234Z,3.44
2019-02-05T01:13:45.214Z,3.50
2019-02-05T01:14:45.208Z,3.52
2019-02-05T01:15:45.199Z,3.45
2019-02-05T01:16:45.202Z,3.45
2019-02-05T01:17:45.169Z,3.52
2019-02-05T01:18:45.165Z,3.52
2019-02-05T01:19:45.150Z,3.50
2019-02-05T01:20:45.130Z,3.53
2019-02-05T01:21:45.152Z,3.54
2019-02-05T01:22:45.136Z,3.53
2019-02-05T01:23:45.111Z,3.52
2019-02-05T01:24:45.099Z,3.64
2019-02-05T01:25:45.080Z,3.50
2019-02-05T01:26:45.103Z,3.56
2019-02-05T01:27:45.057Z,3.49
2019-02-05T01:28:45.048Z,3.49
2019-02-05T01:29:45.048Z,3.46
2019-02-05T01:31:54.238Z,3.52
2019-02-05T01:32:55.198Z,3.52
2019-02-05T01:33:55.189Z,3.41
2019-02-05T01:34:55.188Z,3.34
2019-02-05T01:35:55.172Z,3.35
2019-02-05T01:36:55.189Z,3.33
2019-02-05T01:37:55.167Z,3.35
2019-02-05T01:38:55.147Z,3.41
2019-02-05T01:39:55.139Z,3.31
2019-02-05T01:40:55.126Z,3.37
2019-02-05T01:41:55.143Z,3.25
2019-02-05T01:42:55.103Z,3.25
2019-02-05T01:43:55.091Z,3.25
2019-02-05T01:44:55.075Z,3.31
2019-02-05T01:45:55.059Z,3.25
2019-02-05T01:46:55.068Z,3.19
2019-02-05T01:47:55.053Z,3.17
2019-02-05T01:48:55.025Z,3.13
2019-02-05T01:49:55.023Z,3.15
2019-02-05T01:50:55.007Z,3.17
2019-02-05T01:51:55.002Z,3.17
2019-02-05T01:52:54.997Z,3.12
2019-02-05T01:53:54.980Z,3.08
2019-02-05T01:54:54.966Z,2.98
2019-02-05T01:55:54.967Z,3.04
2019-02-05T01:56:54.949Z,2.98
2019-02-05T01:57:54.959Z,2.97
2019-02-05T01:58:54.927Z,2.94
2019-02-05T01:59:54.915Z,2.89
2019-02-05T02:00:54.907Z,2.92
2019-02-05T02:01:54.900Z,2.87
2019-02-05T02:02:54.902Z,2.90
2019-02-05T02:03:54.873Z,2.83
2019-02-05T02:04:54.866Z,2.76
2019-02-05T02:05:54.856Z,2.74
2019-02-05T02:06:54.840Z,2.87
2019-02-05T02:07:54.845Z,2.83
2019-02-05T02:08:54.820Z,2.84
2019-02-05T02:09:54.803Z,2.77
2019-02-05T02:10:54.803Z,2.83
2019-02-05T02:11:54.781Z,2.83
2019-02-05T02:12:54.925Z,2.76
2019-02-05T02:13:54.778Z,2.77
2019-02-05T02:14:55.467Z,2.83
2019-02-05T02:15:54.735Z,2.80
2019-02-05T02:16:54.734Z,2.81
2019-02-05T02:17:54.748Z,2.74
2019-02-05T02:18:54.723Z,2.80
2019-02-05T02:19:54.689Z,2.76
2019-02-05T02:20:54.691Z,2.68
2019-02-05T02:21:54.676Z,2.66
2019-02-05T02:22:54.684Z,2.69
2019-02-05T02:23:54.664Z,2.76
2019-02-05T02:24:54.645Z,2.74
2019-02-05T02:25:54.638Z,2.71
2019-02-05T02:26:54.616Z,2.66
2019-02-05T02:27:54.631Z,2.68
2019-02-05T02:28:54.595Z,2.74
2019-02-05T02:29:54.587Z,2.69
2019-02-05T02:30:54.581Z,2.66
2019-02-05T02:31:54.570Z,2.71
2019-02-05T02:32:54.597Z,2.76
2019-02-05T02:33:54.548Z,2.69
2019-02-05T02:34:54.535Z,2.63
2019-02-05T02:35:54.543Z,2.66
2019-02-05T02:36:54.516Z,2.63
2019-02-05T02:37:54.515Z,2.63
2019-02-05T02:38:54.510Z,2.66
2019-02-05T02:39:54.485Z,2.68
2019-02-05T02:40:54.481Z,2.65
2019-02-05T02:41:54.461Z,2.63
2019-02-05T02:42:54.447Z,2.77
2019-02-05T02:43:54.453Z,2.77
2019-02-05T02:44:54.433Z,2.66
2019-02-05T02:45:54.415Z,2.66
2019-02-05T02:46:54.406Z,2.66
2019-02-05T02:47:54.397Z,2.69
2019-02-05T02:48:54.394Z,2.66
2019-02-05T02:49:54.376Z,2.63
2019-02-05T02:50:54.357Z,2.65
2019-02-05T02:51:54.355Z,2.66
2019-02-05T02:52:54.330Z,2.71
2019-02-05T02:53:54.351Z,2.68
2019-02-05T02:54:54.324Z,2.71
2019-02-05T02:55:54.308Z,2.71
2019-02-05T02:57:04.510Z,2.65
2019-02-05T02:57:54.284Z,2.62
2019-02-05T02:58:54.285Z,2.63
2019-02-05T02:59:54.267Z,2.71
2019-02-05T03:00:54.253Z,2.68
2019-02-05T03:01:54.248Z,2.69
2019-02-05T03:02:54.236Z,2.65
2019-02-05T03:03:54.243Z,2.63
2019-02-05T03:04:54.208Z,2.71
2019-02-05T03:05:54.197Z,2.73
2019-02-05T03:06:54.193Z,2.63
2019-02-05T03:07:54.180Z,2.68
2019-02-05T03:08:54.194Z,2.74
2019-02-05T03:09:54.154Z,2.77
2019-02-05T03:10:54.143Z,2.79
2019-02-05T03:11:54.123Z,2.76
2019-02-05T03:12:54.120Z,2.79
2019-02-05T03:13:54.135Z,2.76
2019-02-05T03:14:54.099Z,2.77
2019-02-05T03:15:54.087Z,2.77
2019-02-05T03:16:54.076Z,2.76
2019-02-05T03:17:54.068Z,2.74
2019-02-05T03:18:54.081Z,2.79
2019-02-05T03:19:54.054Z,2.80
2019-02-05T03:20:54.039Z,2.81
2019-02-05T03:21:54.014Z,2.68
2019-02-05T03:22:54.027Z,2.76
2019-02-05T03:23:54.005Z,2.80
2019-02-05T03:24:54.006Z,2.80
2019-02-05T03:25:53.983Z,2.74
2019-02-05T03:26:53.973Z,2.80
2019-02-05T03:27:54.391Z,2.79
2019-02-05T03:28:53.962Z,2.83
2019-02-05T03:29:53.966Z,2.80
2019-02-05T03:30:53.977Z,2.80
2019-02-05T03:33:03.131Z,2.81
2019-02-05T03:34:04.100Z,2.79
2019-02-05T03:35:04.111Z,2.83
2019-02-05T03:36:04.083Z,2.81
2019-02-05T03:37:04.074Z,2.80
2019-02-05T03:38:04.066Z,2.79
2019-02-05T03:39:04.051Z,2.80
2019-02-05T03:40:04.042Z,2.81
2019-02-05T03:41:04.035Z,2.81
2019-02-05T03:42:04.013Z,2.83
2019-02-05T03:43:04.000Z,2.84
2019-02-05T03:44:04.013Z,2.69
2019-02-05T03:45:03.979Z,2.79
2019-02-05T03:46:03.988Z,2.83
2019-02-05T03:47:03.964Z,2.81
2019-02-05T03:48:03.962Z,2.79
2019-02-05T03:49:03.936Z,2.73
2019-02-05T03:50:03.944Z,2.71
2019-02-05T03:51:03.939Z,2.81
2019-02-05T03:52:03.922Z,2.83
2019-02-05T03:53:03.903Z,2.71
2019-02-05T03:54:03.889Z,2.81
2019-02-05T03:55:03.885Z,2.84
2019-02-05T03:56:03.895Z,2.77
2019-02-05T03:57:03.867Z,2.95
2019-02-05T03:58:03.835Z,2.83
2019-02-05T03:59:03.828Z,2.76
2019-02-05T04:00:03.825Z,2.69
2019-02-05T04:01:03.828Z,2.83
2019-02-05T04:02:03.817Z,2.84
2019-02-05T04:03:03.784Z,2.81
2019-02-05T04:04:03.785Z,2.87
2019-02-05T04:05:03.764Z,2.74
2019-02-05T04:06:03.774Z,2.79
2019-02-05T04:07:03.745Z,2.83
2019-02-05T04:08:03.738Z,2.86
2019-02-05T04:09:03.730Z,2.81
2019-02-05T04:10:03.720Z,2.84
2019-02-05T04:11:03.721Z,2.90
2019-02-05T04:12:03.700Z,2.89
2019-02-05T04:13:03.698Z,2.84
2019-02-05T04:14:03.674Z,2.89
2019-02-05T04:15:03.660Z,2.86
2019-02-05T04:16:03.671Z,2.84
2019-02-05T04:17:03.645Z,2.92
2019-02-05T04:18:03.624Z,2.90
2019-02-05T04:19:03.623Z,2.87
2019-02-05T04:20:03.608Z,2.94
2019-02-05T04:21:03.614Z,2.90
2019-02-05T04:22:03.587Z,2.90
2019-02-05T04:23:03.565Z,2.92
2019-02-05T04:24:03.570Z,2.98
2019-02-05T04:25:04.354Z,2.99
2019-02-05T04:26:03.559Z,3.04
2019-02-05T04:27:03.540Z,2.94
2019-02-05T04:28:03.526Z,2.94
2019-02-05T04:29:03.548Z,2.97
2019-02-05T04:30:03.529Z,2.94
2019-02-05T04:31:03.512Z,2.97
2019-02-05T04:32:03.479Z,2.98
2019-02-05T04:33:03.465Z,2.99
2019-02-05T04:34:03.461Z,2.97
2019-02-05T04:35:03.441Z,3.01
2019-02-05T04:36:03.455Z,3.02
2019-02-05T04:37:03.420Z,2.92
2019-02-05T04:38:03.408Z,3.01
2019-02-05T04:39:03.409Z,2.95
2019-02-05T04:40:03.398Z,3.08
2019-02-05T04:41:03.420Z,3.04
2019-02-05T04:42:03.369Z,2.97
2019-02-05T04:43:03.363Z,3.04
2019-02-05T04:44:03.350Z,3.05
2019-02-05T04:45:03.329Z,3.01
2019-02-05T04:46:03.365Z,3.12
2019-02-05T04:47:03.318Z,3.01
2019-02-05T04:48:03.308Z,3.04
2019-02-05T04:49:03.299Z,3.10
2019-02-05T04:50:03.279Z,3.04
2019-02-05T04:51:03.291Z,2.99
2019-02-05T04:52:03.263Z,3.02
2019-02-05T04:53:03.247Z,3.01
2019-02-05T04:54:03.246Z,3.05
2019-02-05T04:55:03.238Z,3.05
2019-02-05T04:56:03.271Z,3.02
2019-02-05T04:57:03.221Z,3.01
2019-02-05T04:58:03.187Z,3.05
2019-02-05T04:59:03.191Z,3.12
2019-02-05T05:00:03.229Z,3.07
2019-02-05T05:01:03.181Z,3.01
2019-02-05T05:02:03.161Z,3.04
2019-02-05T05:03:03.149Z,3.05
2019-02-05T05:04:03.128Z,3.08
2019-02-05T05:05:03.131Z,3.08
2019-02-05T05:06:03.133Z,3.10
2019-02-05T05:07:03.116Z,3.10
2019-02-05T05:08:03.090Z,3.17
2019-02-05T05:09:03.086Z,3.08
2019-02-05T05:10:03.074Z,3.08
2019-02-05T05:11:03.081Z,3.08
2019-02-05T05:12:03.046Z,3.12
2019-02-05T05:13:03.059Z,3.16
2019-02-05T05:14:03.021Z,3.16
2019-02-05T05:15:03.008Z,3.15
2019-02-05T05:16:03.019Z,3.13
2019-02-05T05:17:02.999Z,3.15
2019-02-05T05:18:02.980Z,3.19
2019-02-05T05:19:02.987Z,3.17
2019-02-05T05:20:02.956Z,3.08
2019-02-05T05:21:02.942Z,3.13
2019-02-05T05:22:02.983Z,3.16
2019-02-05T05:23:02.937Z,3.12
2019-02-05T05:24:02.922Z,3.17
2019-02-05T05:25:02.929Z,3.15
2019-02-05T05:26:02.895Z,3.19
2019-02-05T05:27:02.928Z,3.22
2019-02-05T05:28:10.084Z,3.13
2019-02-05T05:29:02.885Z,3.19
2019-02-05T05:30:02.921Z,3.17
2019-02-05T05:31:02.846Z,3.19
2019-02-05T05:32:02.861Z,3.16
2019-02-05T05:34:12.004Z,3.17
2019-02-05T05:35:12.993Z,3.13
2019-02-05T05:36:12.978Z,3.19
2019-02-05T05:37:13.005Z,3.17
2019-02-05T05:38:12.966Z,3.13
2019-02-05T05:39:12.949Z,3.19
2019-02-05T05:40:12.948Z,3.15
2019-02-05T05:41:12.931Z,3.16
2019-02-05T05:42:12.948Z,3.19
2019-02-05T05:43:12.928Z,3.26
2019-02-05T05:44:12.901Z,3.16
2019-02-05T05:45:12.891Z,3.20
2019-02-05T05:46:12.891Z,3.12
2019-02-05T05:47:12.888Z,3.22
2019-02-05T05:48:12.859Z,3.25
2019-02-05T05:49:12.838Z,3.17
2019-02-05T05:50:12.839Z,3.20
2019-02-05T05:51:12.817Z,3.20
2019-02-05T05:52:12.844Z,3.15
2019-02-05T05:53:12.816Z,3.23
2019-02-05T05:54:12.791Z,3.23
2019-02-05T05:55:12.778Z,3.17
2019-02-05T05:56:12.769Z,3.22
2019-02-05T05:57:12.790Z,3.22
2019-02-05T05:58:22.269Z,3.20
2019-02-05T05:59:12.730Z,3.26
2019-02-05T06:00:12.730Z,3.23
2019-02-05T06:01:12.724Z,3.20
2019-02-05T06:02:12.736Z,3.20
2019-02-05T06:03:12.714Z,3.22
2019-02-05T06:04:12.685Z,3.22
2019-02-05T06:05:12.670Z,3.25
2019-02-05T06:06:12.684Z,3.22
2019-02-05T06:07:12.675Z,3.28
2019-02-05T06:08:12.650Z,3.22
2019-02-05T06:09:12.638Z,3.20
2019-02-05T06:10:12.626Z,3.22
2019-02-05T06:11:12.614Z,3.23
2019-02-05T06:12:12.612Z,3.20
2019-02-05T06:13:12.588Z,3.23
2019-02-05T06:14:12.572Z,3.22
2019-02-05T06:15:12.562Z,3.16
2019-02-05T06:16:12.547Z,3.25
2019-02-05T06:17:12.671Z,3.23
2019-02-05T06:18:12.528Z,3.28
2019-02-05T06:19:12.616Z,3.25
2019-02-05T06:20:12.505Z,3.22
2019-02-05T06:21:13.784Z,3.19
2019-02-05T06:22:12.503Z,3.23
2019-02-05T06:23:12.487Z,3.20
2019-02-05T06:24:12.468Z,3.22
2019-02-05T06:25:12.466Z,3.19
2019-02-05T06:26:12.434Z,3.25
2019-02-05T06:27:12.455Z,3.19
2019-02-05T06:28:12.441Z,3.26
2019-02-05T06:29:12.403Z,3.17
2019-02-05T06:30:12.392Z,3.26
2019-02-05T06:31:12.385Z,3.23
2019-02-05T06:32:12.400Z,3.22
2019-02-05T06:33:12.374Z,3.25
2019-02-05T06:34:12.374Z,3.22
2019-02-05T06:35:13.288Z,3.22
2019-02-05T06:36:12.326Z,3.22
2019-02-05T06:37:12.348Z,3.25
2019-02-05T06:38:12.314Z,3.23
2019-02-05T06:39:12.313Z,3.23
2019-02-05T06:40:12.288Z,3.22
2019-02-05T06:41:12.276Z,3.22
2019-02-05T06:42:12.285Z,3.22
2019-02-05T06:43:12.251Z,3.17
2019-02-05T06:44:12.258Z,3.20
2019-02-05T06:45:12.274Z,3.17
2019-02-05T06:46:12.237Z,3.20
2019-02-05T06:47:12.230Z,3.16
2019-02-05T06:48:12.197Z,3.16
2019-02-05T06:49:12.250Z,3.22
2019-02-05T06:50:12.310Z,3.19
2019-02-05T06:51:12.189Z,3.16
2019-02-05T06:52:12.277Z,3.10
2019-02-05T06:53:12.152Z,3.13
2019-02-05T06:54:12.201Z,3.13
2019-02-05T06:55:12.433Z,3.05
2019-02-05T06:56:12.134Z,3.08
2019-02-05T06:57:12.116Z,3.05
2019-02-05T06:58:12.088Z,3.07
2019-02-05T06:59:12.114Z,3.12
2019-02-05T07:00:12.082Z,3.08
2019-02-05T07:01:12.066Z,3.12
2019-02-05T07:02:12.250Z,3.16
2019-02-05T07:03:12.124Z,3.10
2019-02-05T07:04:12.090Z,3.08
2019-02-05T07:05:12.028Z,3.07
2019-02-05T07:06:12.138Z,3.12
2019-02-05T07:07:12.004Z,3.08
2019-02-05T07:08:12.469Z,3.19
2019-02-05T07:09:12.039Z,3.07
2019-02-05T07:10:11.967Z,3.12
2019-02-05T07:11:11.957Z,3.05
2019-02-05T07:12:11.950Z,3.08
2019-02-05T07:13:11.947Z,3.07
2019-02-05T07:14:11.995Z,3.07
2019-02-05T07:15:11.903Z,3.08
2019-02-05T07:16:11.936Z,3.02
2019-02-05T07:17:12.063Z,3.08
2019-02-05T07:18:11.910Z,3.07
2019-02-05T07:19:11.881Z,3.13
2019-02-05T07:20:11.846Z,3.04
2019-02-05T07:21:11.864Z,3.07
2019-02-05T07:22:11.848Z,3.07
2019-02-05T07:23:11.847Z,3.02
2019-02-05T07:24:11.835Z,3.07
2019-02-05T07:25:11.813Z,3.12
2019-02-05T07:26:12.502Z,3.15
2019-02-05T07:27:11.775Z,3.05
2019-02-05T07:28:11.788Z,3.13
2019-02-05T07:29:11.754Z,3.19
2019-02-05T07:30:11.745Z,3.15
2019-02-05T07:31:11.744Z,3.16
2019-02-05T07:32:11.751Z,3.16
2019-02-05T07:33:11.746Z,3.19
2019-02-05T07:35:21.670Z,3.19
2019-02-05T07:36:22.987Z,3.23
2019-02-05T07:37:22.542Z,3.15
2019-02-05T07:38:23.008Z,3.20
2019-02-05T07:39:22.504Z,3.26
2019-02-05T07:40:22.599Z,3.17
2019-02-05T07:41:22.548Z,3.20
2019-02-05T07:42:22.491Z,3.19
2019-02-05T07:43:22.588Z,3.23
2019-02-05T07:44:22.470Z,3.22
2019-02-05T07:45:22.499Z,3.30
2019-02-05T07:46:23.174Z,3.22
2019-02-05T07:47:23.486Z,3.30
2019-02-05T07:48:22.420Z,3.26
2019-02-05T07:49:22.468Z,3.25
2019-02-05T07:50:22.381Z,3.26
2019-02-05T07:51:22.529Z,3.25
2019-02-05T07:52:22.352Z,3.31
2019-02-05T07:53:22.362Z,3.23
2019-02-05T07:54:22.387Z,3.30
2019-02-05T07:55:22.332Z,3.26
2019-02-05T07:56:22.425Z,3.35
2019-02-05T07:57:22.474Z,3.35
2019-02-05T07:58:22.318Z,3.37
2019-02-05T07:59:22.402Z,3.37
2019-02-05T08:00:22.363Z,3.39
2019-02-05T08:01:22.265Z,3.35
2019-02-05T08:02:22.258Z,3.37
2019-02-05T08:03:22.271Z,3.39
2019-02-05T08:04:22.239Z,3.49
2019-02-05T08:05:22.239Z,3.46
2019-02-05T08:06:22.276Z,3.44
2019-02-05T08:07:22.198Z,3.45
2019-02-05T08:08:22.283Z,3.35
2019-02-05T08:09:22.204Z,3.35
2019-02-05T08:10:22.201Z,3.46
2019-02-05T08:11:22.151Z,3.45
2019-02-05T08:12:22.150Z,3.42
2019-02-05T08:13:22.168Z,3.44
2019-02-05T08:14:22.126Z,3.37
2019-02-05T08:15:22.121Z,3.42
2019-02-05T08:16:22.128Z,3.45
2019-02-05T08:17:22.110Z,3.37
2019-02-05T08:18:22.248Z,3.42
2019-02-05T08:19:22.089Z,3.54
2019-02-05T08:20:22.081Z,3.52
2019-02-05T08:21:22.065Z,3.52
2019-02-05T08:22:22.090Z,3.49
2019-02-05T08:23:22.150Z,3.53
2019-02-05T08:24:22.029Z,3.53
2019-02-05T08:25:22.012Z,3.42
2019-02-05T08:26:22.060Z,3.37
2019-02-05T08:27:21.995Z,3.41
2019-02-05T08:28:21.966Z,3.46
2019-02-05T08:29:22.046Z,3.56
2019-02-05T08:30:21.985Z,3.52
2019-02-05T08:31:21.963Z,3.52
2019-02-05T08:32:21.964Z,3.60
2019-02-05T08:33:22.071Z,3.62
2019-02-05T08:34:22.056Z,3.46
2019-02-05T08:35:22.001Z,3.46
2019-02-05T08:36:21.954Z,3.53
2019-02-05T08:37:21.898Z,3.54
2019-02-05T08:38:21.895Z,3.42
2019-02-05T08:39:21.884Z,3.53
2019-02-05T08:40:21.919Z,3.52
2019-02-05T08:41:21.862Z,3.52
2019-02-05T08:42:21.906Z,3.57
2019-02-05T08:43:21.814Z,3.59
2019-02-05T08:44:21.828Z,3.57
2019-02-05T08:45:21.817Z,3.57
2019-02-05T08:46:21.774Z,3.53
2019-02-05T08:47:21.810Z,3.45
2019-02-05T08:48:21.925Z,3.53
2019-02-05T08:49:21.746Z,3.50
2019-02-05T08:50:21.762Z,3.53
2019-02-05T08:51:21.736Z,3.50
2019-02-05T08:52:21.723Z,3.50
2019-02-05T08:53:21.728Z,3.49
2019-02-05T08:54:21.716Z,3.54
2019-02-05T08:55:21.901Z,3.53
2019-02-05T08:56:21.996Z,3.57
2019-02-05T08:57:21.664Z,3.56
2019-02-05T08:58:30.562Z,3.54
2019-02-05T08:59:21.639Z,3.56
2019-02-05T09:00:21.662Z,3.62
2019-02-05T09:01:21.635Z,3.49
2019-02-05T09:02:21.606Z,3.45
2019-02-05T09:03:21.605Z,3.42
2019-02-05T09:04:21.586Z,3.50
2019-02-05T09:05:22.710Z,3.46
2019-02-05T09:06:21.625Z,3.53
2019-02-05T09:07:21.616Z,3.53
2019-02-05T09:08:21.740Z,3.50
2019-02-05T09:09:21.695Z,3.52
2019-02-05T09:10:21.581Z,3.57
2019-02-05T09:11:21.927Z,3.54
2019-02-05T09:12:21.808Z,3.50
2019-02-05T09:13:21.833Z,3.50
2019-02-05T09:14:21.497Z,3.49
2019-02-05T09:15:29.082Z,3.56
2019-02-05T09:16:21.515Z,3.44
2019-02-05T09:17:24.259Z,3.50
2019-02-05T09:18:21.478Z,3.50
2019-02-05T09:19:21.440Z,3.50
2019-02-05T09:20:21.566Z,3.67
2019-02-05T09:21:21.976Z,3.50
2019-02-05T09:22:21.416Z,3.49
2019-02-05T09:23:21.441Z,3.53
2019-02-05T09:24:21.559Z,3.46
2019-02-05T09:25:21.538Z,3.46
2019-02-05T09:26:21.432Z,3.39
2019-02-05T09:27:21.356Z,3.42
2019-02-05T09:28:21.425Z,3.50
2019-02-05T09:29:21.327Z,3.46
2019-02-05T09:30:21.543Z,3.53
2019-02-05T09:31:21.427Z,3.53
2019-02-05T09:32:21.314Z,3.54
2019-02-05T09:33:21.348Z,3.45
2019-02-05T09:34:21.410Z,3.52
2019-02-05T09:36:30.500Z,3.54
2019-02-05T09:37:31.552Z,3.52
2019-02-05T09:38:31.482Z,3.56
2019-02-05T09:39:31.426Z,3.59
2019-02-05T09:40:31.418Z,3.63
2019-02-05T09:41:31.461Z,3.57
2019-02-05T09:42:31.405Z,3.52
2019-02-05T09:43:31.387Z,3.62
2019-02-05T09:44:31.644Z,3.68
2019-02-05T09:45:31.366Z,3.64
2019-02-05T09:46:31.431Z,3.59
2019-02-05T09:47:31.349Z,3.60
2019-02-05T09:48:31.327Z,3.63
2019-02-05T09:49:31.309Z,3.60
2019-02-05T09:50:43.711Z,3.70
2019-02-05T09:51:31.313Z,3.64
2019-02-05T09:52:31.298Z,3.72
2019-02-05T09:53:31.297Z,3.74
2019-02-05T09:54:31.276Z,3.71
2019-02-05T09:55:31.245Z,3.78
2019-02-05T09:56:32.225Z,3.81
2019-02-05T09:57:31.716Z,3.71
2019-02-05T09:58:31.261Z,3.74
2019-02-05T09:59:31.257Z,3.82
2019-02-05T10:00:31.738Z,3.88
2019-02-05T10:01:31.692Z,3.88
2019-02-05T10:02:31.899Z,3.72
2019-02-05T10:03:31.930Z,3.88
2019-02-05T10:04:31.182Z,3.89
2019-02-05T10:05:31.240Z,3.81
2019-02-05T10:06:31.158Z,3.92
2019-02-05T10:07:31.631Z,3.88
2019-02-05T10:08:31.201Z,3.86
2019-02-05T10:09:31.240Z,3.89
2019-02-05T10:10:31.082Z,3.88
2019-02-05T10:11:31.213Z,3.95
2019-02-05T10:12:31.112Z,3.93
2019-02-05T10:13:31.061Z,3.95
2019-02-05T10:14:31.056Z,3.93
2019-02-05T10:15:31.111Z,4.04
2019-02-05T10:16:31.018Z,3.93
2019-02-05T10:17:31.002Z,3.88
2019-02-05T10:18:31.000Z,3.92
2019-02-05T10:19:30.983Z,3.88
2019-02-05T10:20:30.969Z,3.92
2019-02-05T10:21:31.021Z,3.95
2019-02-05T10:22:30.951Z,3.92
2019-02-05T10:23:31.010Z,3.98
2019-02-05T10:24:30.953Z,3.92
2019-02-05T10:25:30.948Z,4.02
2019-02-05T10:26:30.913Z,4.10
2019-02-05T10:27:30.900Z,4.04
2019-02-05T10:28:30.918Z,3.96
2019-02-05T10:29:30.879Z,3.96
2019-02-05T10:30:30.968Z,4.02
2019-02-05T10:31:30.862Z,3.98
2019-02-05T10:32:30.846Z,3.93
2019-02-05T10:33:30.852Z,3.90
2019-02-05T10:34:34.091Z,3.92
2019-02-05T10:35:30.882Z,3.90
2019-02-05T10:36:30.809Z,3.98
2019-02-05T10:37:30.850Z,3.92
2019-02-05T10:38:30.792Z,3.95
2019-02-05T10:39:30.770Z,4.02
2019-02-05T10:40:30.758Z,3.99
2019-02-05T10:41:30.746Z,3.99
2019-02-05T10:42:30.727Z,4.07
2019-02-05T10:43:30.744Z,4.02
2019-02-05T10:44:30.713Z,3.98
2019-02-05T10:45:30.709Z,4.00
2019-02-05T10:46:30.712Z,4.04
2019-02-05T10:47:30.680Z,3.93
2019-02-05T10:48:30.707Z,4.04
2019-02-05T10:49:30.691Z,3.96
2019-02-05T10:50:30.642Z,4.00
2019-02-05T10:51:30.672Z,3.95
2019-02-05T10:52:30.932Z,3.93
2019-02-05T10:53:30.644Z,4.08
2019-02-05T10:54:30.641Z,4.06
2019-02-05T10:55:30.660Z,4.04
2019-02-05T10:56:30.606Z,3.95
2019-02-05T10:57:30.629Z,3.95
2019-02-05T10:58:30.585Z,4.02
2019-02-05T10:59:30.649Z,3.99
2019-02-05T11:00:30.536Z,4.04
2019-02-05T11:01:30.562Z,3.92
2019-02-05T11:02:30.536Z,3.96
2019-02-05T11:03:30.534Z,3.95
2019-02-05T11:04:30.663Z,3.99
2019-02-05T11:05:30.489Z,4.00
2019-02-05T11:06:30.487Z,4.04
2019-02-05T11:07:30.509Z,3.96
2019-02-05T11:08:30.466Z,3.99
2019-02-05T11:09:30.500Z,4.02
2019-02-05T11:10:30.490Z,3.99
2019-02-05T11:11:30.660Z,3.96
2019-02-05T11:12:30.458Z,3.98
2019-02-05T11:13:30.635Z,4.07
2019-02-05T11:14:30.477Z,3.95
2019-02-05T11:15:30.382Z,4.04
2019-02-05T11:16:30.397Z,3.89
2019-02-05T11:17:30.349Z,3.99
2019-02-05T11:18:30.358Z,3.93
2019-02-05T11:19:30.336Z,3.93
2019-02-05T11:20:30.314Z,3.96
2019-02-05T11:21:30.314Z,3.93
2019-02-05T11:22:30.298Z,3.95
2019-02-05T11:23:31.227Z,3.95
2019-02-05T11:24:30.882Z,3.78
2019-02-05T11:25:30.253Z,3.84
2019-02-05T11:26:30.305Z,3.81
2019-02-05T11:27:30.247Z,3.90
2019-02-05T11:28:30.237Z,3.95
2019-02-05T11:29:30.423Z,3.86
2019-02-05T11:30:30.253Z,3.95
2019-02-05T11:31:30.208Z,3.95
2019-02-05T11:32:30.199Z,3.86
2019-02-05T11:33:30.369Z,3.90
2019-02-05T11:34:30.236Z,3.89
2019-02-05T11:35:30.261Z,3.92
2019-02-05T11:37:39.376Z,3.95
2019-02-05T11:38:40.334Z,3.98
2019-02-05T11:39:40.706Z,3.96
2019-02-05T11:40:40.348Z,4.04
2019-02-05T11:41:40.306Z,3.95
2019-02-05T11:42:40.352Z,3.98
2019-02-05T11:43:40.373Z,3.93
2019-02-05T11:44:40.321Z,3.92
2019-02-05T11:45:40.288Z,4.02
2019-02-05T11:46:40.371Z,3.99
2019-02-05T11:47:40.347Z,3.99
2019-02-05T11:48:40.347Z,4.02
2019-02-05T11:49:40.339Z,3.93
2019-02-05T11:50:40.312Z,4.04
2019-02-05T11:51:40.180Z,3.93
2019-02-05T11:52:40.184Z,3.92
2019-02-05T11:53:40.176Z,4.02
2019-02-05T11:54:40.238Z,3.88
2019-02-05T11:55:40.156Z,3.89
2019-02-05T11:56:40.175Z,4.06
2019-02-05T11:57:40.193Z,3.98
2019-02-05T11:58:40.119Z,3.92
2019-02-05T11:59:40.142Z,4.04
2019-02-05T12:00:40.191Z,3.99
2019-02-05T12:01:40.111Z,4.02
2019-02-05T12:02:40.066Z,3.99
2019-02-05T12:03:40.086Z,4.00
2019-02-05T12:04:40.075Z,3.98
2019-02-05T12:05:40.065Z,3.99
2019-02-05T12:06:40.057Z,4.04
2019-02-05T12:07:40.030Z,4.02
2019-02-05T12:08:40.059Z,3.99
2019-02-05T12:09:39.988Z,4.00
2019-02-05T12:10:40.058Z,3.96
2019-02-05T12:11:39.994Z,3.93
2019-02-05T12:12:40.005Z,3.99
2019-02-05T12:13:39.964Z,3.93
2019-02-05T12:14:39.977Z,3.98
2019-02-05T12:15:40.038Z,4.04
2019-02-05T12:16:40.000Z,4.04
2019-02-05T12:17:39.988Z,3.96
2019-02-05T12:18:39.908Z,3.99
2019-02-05T12:19:39.916Z,4.08
2019-02-05T12:20:39.939Z,3.96
2019-02-05T12:21:39.887Z,4.04
2019-02-05T12:22:39.994Z,3.93
2019-02-05T12:23:39.844Z,4.07
2019-02-05T12:24:39.851Z,3.99
2019-02-05T12:25:39.876Z,3.99
2019-02-05T12:26:39.836Z,4.00
2019-02-05T12:27:39.809Z,4.04
2019-02-05T12:28:39.815Z,4.07
2019-02-05T12:29:39.795Z,4.00
2019-02-05T12:30:44.870Z,4.07
2019-02-05T12:31:39.813Z,4.08
2019-02-05T12:32:39.762Z,4.06
2019-02-05T12:33:39.796Z,4.06
2019-02-05T12:34:39.719Z,3.99
2019-02-05T12:35:39.741Z,4.07
2019-02-05T12:36:39.723Z,4.06
2019-02-05T12:37:39.695Z,4.10
2019-02-05T12:38:39.671Z,4.10
2019-02-05T12:39:39.673Z,4.08
2019-02-05T12:40:39.678Z,4.00
2019-02-05T12:41:39.653Z,4.07
2019-02-05T12:42:39.636Z,4.06
2019-02-05T12:43:39.653Z,4.07
2019-02-05T12:44:39.614Z,4.02
2019-02-05T12:45:39.649Z,4.07
2019-02-05T12:46:39.606Z,4.07
2019-02-05T12:47:39.606Z,4.08
2019-02-05T12:48:39.579Z,4.02
2019-02-05T12:49:39.571Z,3.96
2019-02-05T12:50:39.578Z,3.99
2019-02-05T12:51:39.559Z,3.99
2019-02-05T12:52:39.566Z,4.08
2019-02-05T12:53:39.527Z,4.02
2019-02-05T12:54:39.502Z,4.06
2019-02-05T12:55:39.520Z,4.10
2019-02-05T12:56:39.514Z,3.98
2019-02-05T12:57:39.470Z,4.00
2019-02-05T12:58:39.488Z,4.00
2019-02-05T12:59:39.482Z,4.06
2019-02-05T13:00:39.462Z,4.11
2019-02-05T13:01:39.440Z,4.06
2019-02-05T13:02:39.455Z,4.11
2019-02-05T13:03:39.412Z,3.99
2019-02-05T13:04:39.404Z,4.08
2019-02-05T13:05:39.412Z,4.06
2019-02-05T13:06:39.379Z,4.06
2019-02-05T13:07:39.382Z,4.10
2019-02-05T13:08:40.126Z,4.02
2019-02-05T13:09:39.351Z,4.07
2019-02-05T13:10:39.362Z,4.00
2019-02-05T13:11:39.353Z,3.98
2019-02-05T13:12:39.310Z,4.00
2019-02-05T13:13:39.315Z,4.02
2019-02-05T13:14:39.300Z,4.02
2019-02-05T13:15:39.320Z,3.99
2019-02-05T13:16:39.315Z,3.95
2019-02-05T13:17:39.256Z,4.02
2019-02-05T13:18:39.331Z,3.96
2019-02-05T13:19:39.274Z,3.98
2019-02-05T13:20:39.345Z,3.98
2019-02-05T13:21:39.224Z,3.99
2019-02-05T13:22:39.212Z,4.02
2019-02-05T13:23:39.198Z,4.06
2019-02-05T13:24:39.212Z,4.04
2019-02-05T13:25:39.204Z,4.04